createdAt,value
2023-01-28T00:01:14.401Z,14.27
2023-01-28T00:03:44.011Z,12.90
2023-01-28T00:06:14.919Z,10.77
2023-01-28T00:08:44.532Z,19.00
2023-01-28T00:11:14.849Z,9.53
2023-01-28T00:13:45.835Z,12.57
2023-01-28T00:16:15.146Z,10.10
2023-01-28T00:18:44.324Z,13.40
2023-01-28T00:21:14.309Z,12.57
2023-01-28T00:23:45.126Z,14.10
2023-01-28T00:26:15.376Z,10.83
2023-01-28T00:28:48.448Z,9.40
2023-01-28T00:31:18.966Z,11.80
2023-01-28T00:33:48.912Z,9.90
2023-01-28T00:36:18.456Z,10.00
2023-01-28T00:38:51.678Z,14.13
2023-01-28T00:41:22.731Z,14.20
2023-01-28T00:43:55.614Z,10.27
2023-01-28T00:46:25.557Z,10.13
2023-01-28T00:48:54.888Z,10.97
2023-01-28T00:51:24.538Z,11.20
2023-01-28T00:53:54.112Z,13.43
2023-01-28T00:56:23.378Z,9.23
2023-01-28T00:58:52.619Z,12.17
2023-01-28T01:01:24.357Z,14.03
2023-01-28T01:04:02.793Z,11.33
2023-01-28T01:06:33.728Z,8.90
2023-01-28T01:09:03.004Z,10.90
2023-01-28T01:11:32.969Z,9.37
2023-01-28T01:14:04.141Z,11.33
2023-01-28T01:16:36.424Z,9.70
2023-01-28T01:19:06.340Z,10.70
2023-01-28T01:21:35.593Z,7.93
2023-01-28T01:24:04.933Z,7.60
2023-01-28T01:26:34.129Z,9.17
2023-01-28T01:29:03.561Z,7.43
2023-01-28T01:31:34.336Z,10.63
2023-01-28T01:34:03.571Z,13.30
2023-01-28T01:36:33.407Z,10.10
2023-01-28T01:39:02.985Z,8.50
2023-01-28T01:41:33.343Z,9.60
2023-01-28T01:44:03.596Z,11.27
2023-01-28T01:46:37.607Z,8.73
2023-01-28T01:49:10.287Z,15.30
2023-01-28T01:51:39.865Z,7.73
2023-01-28T01:54:09.748Z,6.43
2023-01-28T01:56:41.490Z,6.77
2023-01-28T01:59:13.353Z,5.63
2023-01-28T02:01:45.843Z,5.37
2023-01-28T02:04:17.971Z,4.10
2023-01-28T02:06:48.771Z,5.43
2023-01-28T02:09:29.840Z,3.87
2023-01-28T02:12:00.696Z,6.33
2023-01-28T02:14:31.948Z,6.67
2023-01-28T02:17:03.473Z,4.13
2023-01-28T02:19:35.677Z,8.80
2023-01-28T02:22:29.012Z,5.57
2023-01-28T02:25:11.888Z,5.90
2023-01-28T02:27:52.485Z,4.10
2023-01-28T02:30:23.701Z,5.00
2023-01-28T02:32:55.801Z,5.07
2023-01-28T02:35:28.185Z,6.77
2023-01-28T02:38:00.752Z,7.73
2023-01-28T02:40:34.463Z,7.77
2023-01-28T02:43:05.250Z,6.50
2023-01-28T02:45:49.649Z,9.93
2023-01-28T02:48:19.720Z,5.50
2023-01-28T02:50:52.982Z,6.30
2023-01-28T02:53:45.352Z,6.40
2023-01-28T02:56:20.421Z,5.77
2023-01-28T02:58:55.856Z,8.03
2023-01-28T03:01:27.178Z,10.80
2023-01-28T03:04:00.263Z,10.47
2023-01-28T03:06:39.389Z,8.97
2023-01-28T03:09:25.998Z,7.27
2023-01-28T03:12:14.949Z,8.00
2023-01-28T03:15:04.741Z,7.10
2023-01-28T03:17:55.912Z,7.80
2023-01-28T03:20:44.188Z,13.60
2023-01-28T03:23:34.266Z,6.10
2023-01-28T03:26:22.633Z,8.67
2023-01-28T03:29:10.259Z,10.70
2023-01-28T03:31:58.843Z,8.83
2023-01-28T03:34:45.627Z,7.80
2023-01-28T03:37:15.806Z,4.70
2023-01-28T03:39:51.428Z,6.40
2023-01-28T03:42:21.306Z,10.50
2023-01-28T03:45:11.347Z,13.53
2023-01-28T03:47:42.363Z,4.50
2023-01-28T03:50:13.470Z,4.63
2023-01-28T03:52:53.169Z,5.17
2023-01-28T03:55:32.264Z,4.57
2023-01-28T03:58:01.755Z,5.63
2023-01-28T04:00:30.979Z,5.03
2023-01-28T04:03:01.904Z,5.97
2023-01-28T04:05:31.228Z,9.23
2023-01-28T04:08:02.374Z,5.10
2023-01-28T04:10:58.354Z,4.27
2023-01-28T04:13:32.463Z,4.40
2023-01-28T04:16:03.894Z,8.43
2023-01-28T04:18:39.309Z,6.03
2023-01-28T04:21:08.767Z,4.80
2023-01-28T04:23:38.015Z,3.97
2023-01-28T04:26:08.584Z,4.97
2023-01-28T04:28:37.726Z,5.70
2023-01-28T04:31:08.203Z,4.77
2023-01-28T04:33:57.303Z,5.13
2023-01-28T04:36:36.807Z,3.40
2023-01-28T04:39:29.308Z,6.07
2023-01-28T04:42:21.482Z,4.37
2023-01-28T04:45:04.261Z,6.90
2023-01-28T04:47:52.603Z,3.27
2023-01-28T04:50:34.132Z,5.07
2023-01-28T04:53:21.779Z,5.40
2023-01-28T04:55:58.439Z,4.70
2023-01-28T04:58:28.999Z,7.63
2023-01-28T05:01:03.183Z,4.40
2023-01-28T05:03:35.320Z,8.33
2023-01-28T05:06:07.855Z,5.17
2023-01-28T05:08:44.037Z,6.03
2023-01-28T05:11:13.298Z,4.17
2023-01-28T05:13:43.209Z,4.70
2023-01-28T05:16:15.209Z,4.03
2023-01-28T05:18:48.195Z,10.73
2023-01-28T05:21:21.579Z,6.83
2023-01-28T05:23:56.536Z,4.90
2023-01-28T05:26:25.880Z,4.27
2023-01-28T05:28:55.226Z,5.80
2023-01-28T05:31:24.710Z,8.23
2023-01-28T05:33:53.962Z,5.00
2023-01-28T05:36:26.144Z,6.10
2023-01-28T05:38:57.033Z,11.20
2023-01-28T05:41:26.413Z,6.63
2023-01-28T05:44:01.501Z,4.90
2023-01-28T05:46:46.793Z,3.77
2023-01-28T05:49:42.159Z,3.97
2023-01-28T05:52:31.541Z,3.40
2023-01-28T05:55:01.724Z,4.73
2023-01-28T05:57:30.938Z,5.20
2023-01-28T06:00:00.163Z,3.73
2023-01-28T06:02:29.580Z,4.07
2023-01-28T06:05:01.311Z,4.10
2023-01-28T06:07:32.263Z,3.97
2023-01-28T06:10:01.545Z,4.37
2023-01-28T06:12:30.739Z,4.60
2023-01-28T06:15:26.021Z,6.37
2023-01-28T06:18:14.251Z,4.40
2023-01-28T06:20:43.480Z,4.43
2023-01-28T06:23:14.300Z,4.10
2023-01-28T06:25:43.720Z,3.10
2023-01-28T06:28:15.146Z,4.73
2023-01-28T06:30:44.405Z,4.07
2023-01-28T06:33:13.572Z,4.23
2023-01-28T06:35:43.091Z,3.13
2023-01-28T06:38:12.383Z,6.43
2023-01-28T06:40:43.003Z,5.07
2023-01-28T06:43:12.314Z,3.90
2023-01-28T06:45:41.500Z,4.70
2023-01-28T06:48:10.718Z,4.80
2023-01-28T06:50:40.002Z,4.90
2023-01-28T06:53:09.183Z,6.10
2023-01-28T06:55:38.385Z,3.30
2023-01-28T06:58:09.474Z,5.07
2023-01-28T07:00:38.859Z,4.70
2023-01-28T07:03:08.326Z,5.87
2023-01-28T07:05:38.181Z,3.50
2023-01-28T07:08:07.567Z,4.20
2023-01-28T07:10:37.471Z,3.50
2023-01-28T07:13:06.723Z,6.00
2023-01-28T07:15:37.440Z,4.67
2023-01-28T07:18:06.792Z,8.23
2023-01-28T07:20:36.634Z,5.37
2023-01-28T07:23:06.043Z,5.57
2023-01-28T07:25:35.604Z,6.37
2023-01-28T07:28:05.006Z,6.83
2023-01-28T07:30:34.329Z,4.37
2023-01-28T07:33:05.044Z,4.03
2023-01-28T07:35:34.508Z,5.90
2023-01-28T07:38:03.654Z,6.20
2023-01-28T07:40:32.974Z,7.20
2023-01-28T07:43:02.198Z,4.30
2023-01-28T07:45:38.893Z,7.80
2023-01-28T07:48:10.514Z,5.00
2023-01-28T07:50:40.626Z,4.80
2023-01-28T07:53:10.932Z,10.83
2023-01-28T07:55:40.723Z,6.40
2023-01-28T07:58:10.637Z,6.50
2023-01-28T08:00:40.192Z,5.60
2023-01-28T08:03:14.381Z,7.03
2023-01-28T08:05:44.934Z,4.13
2023-01-28T08:08:14.188Z,4.60
2023-01-28T08:10:44.213Z,4.80
2023-01-28T08:13:13.967Z,5.13
2023-01-28T08:15:43.653Z,7.07
2023-01-28T08:18:15.365Z,4.30
2023-01-28T08:20:46.571Z,5.50
2023-01-28T08:23:16.794Z,5.97
2023-01-28T08:25:46.715Z,12.93
2023-01-28T08:28:16.657Z,6.80
2023-01-28T08:30:46.035Z,5.07
2023-01-28T08:33:17.647Z,6.73
2023-01-28T08:35:47.039Z,2.70
2023-01-28T08:38:17.889Z,4.97
2023-01-28T08:40:47.110Z,4.83
2023-01-28T08:43:16.490Z,3.57
2023-01-28T08:45:45.981Z,8.20
2023-01-28T08:48:17.208Z,4.37
2023-01-28T08:50:47.193Z,6.20
2023-01-28T08:53:17.316Z,8.57
2023-01-28T08:55:46.983Z,11.73
2023-01-28T08:58:16.852Z,10.40
2023-01-28T09:00:46.492Z,3.30
2023-01-28T09:03:17.123Z,6.00
2023-01-28T09:05:47.039Z,6.27
2023-01-28T09:08:17.263Z,7.40
2023-01-28T09:10:46.692Z,9.30
2023-01-28T09:13:17.062Z,5.53
2023-01-28T09:15:46.385Z,5.60
2023-01-28T09:18:15.632Z,5.10
2023-01-28T09:20:46.413Z,4.83
2023-01-28T09:23:15.813Z,8.30
2023-01-28T09:25:45.276Z,3.87
2023-01-28T09:28:14.622Z,5.47
2023-01-28T09:30:43.880Z,5.40
2023-01-28T09:33:13.317Z,4.90
2023-01-28T09:35:42.568Z,7.97
2023-01-28T09:38:13.222Z,4.67
2023-01-28T09:40:44.931Z,3.77
2023-01-28T09:43:29.567Z,4.53
2023-01-28T09:46:00.594Z,5.20
2023-01-28T09:48:33.005Z,4.93
2023-01-28T09:51:03.040Z,5.30
2023-01-28T09:53:35.346Z,6.33
2023-01-28T09:56:05.588Z,6.30
2023-01-28T09:58:34.940Z,6.10
2023-01-28T10:01:09.533Z,4.70
2023-01-28T10:03:51.683Z,4.37
2023-01-28T10:06:26.148Z,4.17
2023-01-28T10:09:07.695Z,6.00
2023-01-28T10:11:43.384Z,5.37
2023-01-28T10:14:16.096Z,7.57
2023-01-28T10:16:47.805Z,3.13
2023-01-28T10:19:18.732Z,4.23
2023-01-28T10:21:49.993Z,6.40
2023-01-28T10:24:26.099Z,10.93
2023-01-28T10:26:55.807Z,6.83
2023-01-28T10:29:26.587Z,6.20
2023-01-28T10:31:56.606Z,8.17
2023-01-28T10:34:25.846Z,4.83
2023-01-28T10:36:55.896Z,4.40
2023-01-28T10:39:27.345Z,8.03
2023-01-28T10:41:58.566Z,6.73
2023-01-28T10:44:34.011Z,5.13
2023-01-28T10:47:05.303Z,6.60
2023-01-28T10:49:41.612Z,9.47
2023-01-28T10:52:14.956Z,5.83
2023-01-28T10:54:46.011Z,8.37
2023-01-28T10:57:16.636Z,5.20
2023-01-28T10:59:45.919Z,6.60
2023-01-28T11:02:25.000Z,8.03
2023-01-28T11:05:03.484Z,7.27
2023-01-28T11:07:33.139Z,8.93
2023-01-28T11:10:04.036Z,8.77
2023-01-28T11:12:34.700Z,9.57
2023-01-28T11:15:04.793Z,7.30
2023-01-28T11:17:35.911Z,12.43
2023-01-28T11:20:12.228Z,7.07
2023-01-28T11:22:44.304Z,6.83
2023-01-28T11:25:19.054Z,8.63
2023-01-28T11:27:50.025Z,6.03
2023-01-28T11:30:23.556Z,7.13
2023-01-28T11:32:57.493Z,7.90
2023-01-28T11:35:29.023Z,11.30
2023-01-28T11:37:59.002Z,12.33
2023-01-28T11:40:30.347Z,8.80
2023-01-28T11:43:00.570Z,7.47
2023-01-28T11:45:34.665Z,13.07
2023-01-28T11:48:14.172Z,14.00
2023-01-28T11:50:47.024Z,8.17
2023-01-28T11:53:23.631Z,10.83
2023-01-28T11:56:03.399Z,9.63
2023-01-28T11:58:39.199Z,9.90
2023-01-28T12:01:33.637Z,5.87
2023-01-28T12:04:18.935Z,9.37
2023-01-28T12:06:55.127Z,8.03
2023-01-28T12:09:28.164Z,10.30
2023-01-28T12:12:14.509Z,7.63
2023-01-28T12:14:59.109Z,13.50
2023-01-28T12:17:31.091Z,13.13
2023-01-28T12:20:07.960Z,8.10
2023-01-28T12:22:54.196Z,10.00
2023-01-28T12:25:31.697Z,9.13
2023-01-28T12:28:05.572Z,10.33
2023-01-28T12:30:43.211Z,13.50
2023-01-28T12:33:35.178Z,13.03
2023-01-28T12:36:11.281Z,12.03
2023-01-28T12:38:43.932Z,13.70
2023-01-28T12:41:15.349Z,17.83
2023-01-28T12:44:02.458Z,10.30
2023-01-28T12:46:38.402Z,13.83
2023-01-28T12:49:08.678Z,11.30
2023-01-28T12:51:41.418Z,12.87
2023-01-28T12:54:14.895Z,10.87
2023-01-28T12:56:46.852Z,9.77
2023-01-28T12:59:19.151Z,13.23
2023-01-28T13:01:53.472Z,13.27
2023-01-28T13:04:27.285Z,29.00
2023-01-28T13:06:57.784Z,13.57
2023-01-28T13:09:28.836Z,13.27
2023-01-28T13:11:59.700Z,15.20
2023-01-28T13:14:31.264Z,10.47
2023-01-28T13:17:12.118Z,13.73
2023-01-28T13:19:42.030Z,13.87
2023-01-28T13:22:15.754Z,15.63
2023-01-28T13:24:45.157Z,12.17
2023-01-28T13:27:23.562Z,11.70
2023-01-28T13:30:02.681Z,11.53
2023-01-28T13:32:36.445Z,12.40
2023-01-28T13:35:08.361Z,11.57
2023-01-28T13:37:40.014Z,14.53
2023-01-28T13:40:11.638Z,13.80
2023-01-28T13:42:42.436Z,14.70
2023-01-28T13:45:25.396Z,11.30
2023-01-28T13:47:58.641Z,12.90
2023-01-28T13:50:33.974Z,13.00
2023-01-28T13:53:06.306Z,18.13
2023-01-28T13:55:44.673Z,10.93
2023-01-28T13:58:27.161Z,16.63
2023-01-28T14:01:22.705Z,10.73
2023-01-28T14:04:09.762Z,16.90
2023-01-28T14:06:57.666Z,12.07
2023-01-28T14:09:44.627Z,14.27
2023-01-28T14:12:29.177Z,12.47
2023-01-28T14:15:12.479Z,12.10
2023-01-28T14:17:46.273Z,16.33
2023-01-28T14:20:19.722Z,12.83
2023-01-28T14:22:49.610Z,13.03
2023-01-28T14:25:23.274Z,11.53
2023-01-28T14:27:55.506Z,12.70
2023-01-28T14:30:26.441Z,12.00
2023-01-28T14:32:56.215Z,12.60
2023-01-28T14:35:29.574Z,13.63
2023-01-28T14:38:00.050Z,13.00
2023-01-28T14:40:30.993Z,11.30
2023-01-28T14:43:03.194Z,12.13
2023-01-28T14:45:38.018Z,12.83
2023-01-28T14:48:20.008Z,14.07
2023-01-28T14:51:10.120Z,16.70
2023-01-28T14:53:51.079Z,9.70
2023-01-28T14:56:24.341Z,12.07
2023-01-28T14:58:59.698Z,12.97
2023-01-28T15:01:29.868Z,13.30
2023-01-28T15:03:59.439Z,11.87
2023-01-28T15:06:32.644Z,9.47
2023-01-28T15:09:08.707Z,10.63
2023-01-28T15:11:39.717Z,16.20
2023-01-28T15:14:14.712Z,11.93
2023-01-28T15:16:49.249Z,13.00
2023-01-28T15:19:19.372Z,16.90
2023-01-28T15:21:49.783Z,12.47
2023-01-28T15:24:19.363Z,10.17
2023-01-28T15:26:49.365Z,11.23
2023-01-28T15:29:33.753Z,13.07
2023-01-28T15:32:04.122Z,9.60
2023-01-28T15:34:33.567Z,9.13
2023-01-28T15:37:03.428Z,12.03
2023-01-28T15:39:32.908Z,16.90
2023-01-28T15:42:03.552Z,14.70
2023-01-28T15:44:35.648Z,11.07
2023-01-28T15:47:05.544Z,13.90
2023-01-28T15:49:36.155Z,20.33
2023-01-28T15:52:06.276Z,11.83
2023-01-28T15:54:39.260Z,11.73
2023-01-28T15:57:12.655Z,13.13
2023-01-28T15:59:46.390Z,9.80
2023-01-28T16:02:23.044Z,13.60
2023-01-28T16:04:59.040Z,7.90
2023-01-28T16:07:29.233Z,8.10
2023-01-28T16:09:59.386Z,8.47
2023-01-28T16:12:29.551Z,12.97
2023-01-28T16:15:01.334Z,6.83
2023-01-28T16:17:32.638Z,12.80
2023-01-28T16:20:03.444Z,10.67
2023-01-28T16:22:36.020Z,13.17
2023-01-28T16:25:06.070Z,11.87
2023-01-28T16:27:35.291Z,14.60
2023-01-28T16:30:06.249Z,13.00
2023-01-28T16:32:37.868Z,8.17
2023-01-28T16:35:14.895Z,7.63
2023-01-28T16:37:44.469Z,7.83
2023-01-28T16:40:15.018Z,9.50
2023-01-28T16:42:45.409Z,7.77
2023-01-28T16:45:18.888Z,14.30
2023-01-28T16:47:48.325Z,6.50
2023-01-28T16:50:17.998Z,7.47
2023-01-28T16:52:48.354Z,5.90
2023-01-28T16:55:18.721Z,9.53
2023-01-28T16:57:49.368Z,11.83
2023-01-28T17:00:21.169Z,6.23
2023-01-28T17:02:50.658Z,6.30
2023-01-28T17:05:20.310Z,6.20
2023-01-28T17:07:50.127Z,10.77
2023-01-28T17:10:20.847Z,5.70
2023-01-28T17:12:50.506Z,7.93
2023-01-28T17:15:21.343Z,9.17
2023-01-28T17:17:50.885Z,6.80
2023-01-28T17:20:20.625Z,7.30
2023-01-28T17:22:49.894Z,8.50
2023-01-28T17:25:19.460Z,7.97
2023-01-28T17:27:51.336Z,5.03
2023-01-28T17:30:22.582Z,6.83
2023-01-28T17:32:52.473Z,6.80
2023-01-28T17:35:21.878Z,7.70
2023-01-28T17:37:54.339Z,6.10
2023-01-28T17:40:23.822Z,9.60
2023-01-28T17:42:53.158Z,11.27
2023-01-28T17:45:24.870Z,11.40
2023-01-28T17:47:54.266Z,9.37
2023-01-28T17:50:23.631Z,10.60
2023-01-28T17:52:56.199Z,7.10
2023-01-28T17:55:25.945Z,6.30
2023-01-28T17:57:55.222Z,8.83
2023-01-28T18:00:27.140Z,12.10
2023-01-28T18:02:56.478Z,11.70
2023-01-28T18:05:25.897Z,9.63
2023-01-28T18:07:55.834Z,12.37
2023-01-28T18:10:25.322Z,15.43
2023-01-28T18:12:54.568Z,7.50
2023-01-28T18:15:25.463Z,10.80
2023-01-28T18:17:54.924Z,9.40
2023-01-28T18:20:24.219Z,7.47
2023-01-28T18:22:53.764Z,10.23
2023-01-28T18:25:23.058Z,7.50
2023-01-28T18:27:52.380Z,11.00
2023-01-28T18:30:21.745Z,7.77
2023-01-28T18:32:52.731Z,12.13
2023-01-28T18:35:22.344Z,7.90
2023-01-28T18:37:51.851Z,9.07
2023-01-28T18:40:22.425Z,12.10
2023-01-28T18:42:51.893Z,7.87
2023-01-28T18:45:22.445Z,8.77
2023-01-28T18:47:53.481Z,8.47
2023-01-28T18:50:22.786Z,8.57
2023-01-28T18:52:51.952Z,10.67
2023-01-28T18:55:21.685Z,11.93
2023-01-28T18:57:51.043Z,12.27
2023-01-28T19:00:20.996Z,7.80
2023-01-28T19:02:50.368Z,8.70
2023-01-28T19:05:21.516Z,19.57
2023-01-28T19:07:50.813Z,8.80
2023-01-28T19:10:20.298Z,8.50
2023-01-28T19:12:49.500Z,9.50
2023-01-28T19:15:18.912Z,7.03
2023-01-28T19:17:48.377Z,13.03
2023-01-28T19:20:18.492Z,9.33
2023-01-28T19:22:49.434Z,14.93
2023-01-28T19:25:19.127Z,9.23
2023-01-28T19:27:48.472Z,6.43
2023-01-28T19:30:17.950Z,8.77
2023-01-28T19:32:47.300Z,9.80
2023-01-28T19:35:16.886Z,8.13
2023-01-28T19:37:46.999Z,10.80
2023-01-28T19:40:17.923Z,6.17
2023-01-28T19:42:47.429Z,12.73
2023-01-28T19:45:17.077Z,8.50
2023-01-28T19:47:46.450Z,9.00
2023-01-28T19:50:16.150Z,9.60
2023-01-28T19:52:45.529Z,15.73
2023-01-28T19:55:15.136Z,15.83
2023-01-28T19:57:46.270Z,9.23
2023-01-28T20:00:15.772Z,9.00
2023-01-28T20:02:45.154Z,11.93
2023-01-28T20:05:15.063Z,14.17
2023-01-28T20:07:44.438Z,9.13
2023-01-28T20:10:13.962Z,10.70
2023-01-28T20:12:43.188Z,10.77
2023-01-28T20:15:14.692Z,10.67
2023-01-28T20:17:44.345Z,8.40
2023-01-28T20:20:13.931Z,10.00
2023-01-28T20:22:43.467Z,11.77
2023-01-28T20:25:12.818Z,10.83
2023-01-28T20:27:42.273Z,9.13
2023-01-28T20:30:14.092Z,9.57
2023-01-28T20:32:43.565Z,13.93
2023-01-28T20:35:12.755Z,10.27
2023-01-28T20:37:42.668Z,9.13
2023-01-28T20:40:12.810Z,9.80
2023-01-28T20:42:42.051Z,12.67
2023-01-28T20:45:11.376Z,10.90
2023-01-28T20:47:42.254Z,11.90
2023-01-28T20:50:12.027Z,10.27
2023-01-28T20:52:41.448Z,8.87
2023-01-28T20:55:12.037Z,8.07
2023-01-28T20:57:44.402Z,8.10
2023-01-28T21:00:15.296Z,8.30
2023-01-28T21:02:46.257Z,8.97
2023-01-28T21:05:15.729Z,9.40
2023-01-28T21:07:45.093Z,7.97
2023-01-28T21:10:14.302Z,11.23
2023-01-28T21:12:43.551Z,8.30
2023-01-28T21:15:13.215Z,9.23
2023-01-28T21:17:42.611Z,8.23
2023-01-28T21:20:15.085Z,8.93
2023-01-28T21:22:44.496Z,5.80
2023-01-28T21:25:15.958Z,9.07
2023-01-28T21:27:45.282Z,8.23
2023-01-28T21:30:15.389Z,13.70
2023-01-28T21:32:45.214Z,12.20
2023-01-28T21:35:15.817Z,8.70
2023-01-28T21:37:47.660Z,8.23
2023-01-28T21:40:17.324Z,12.20
2023-01-28T21:42:47.488Z,8.87
2023-01-28T21:45:16.991Z,12.40
2023-01-28T21:47:46.245Z,18.47
2023-01-28T21:50:18.126Z,11.77
2023-01-28T21:52:49.733Z,8.30
2023-01-28T21:55:19.473Z,8.90
2023-01-28T21:57:49.142Z,9.40
2023-01-28T22:00:18.197Z,10.43
2023-01-28T22:02:47.920Z,9.07
2023-01-28T22:05:18.745Z,8.93
2023-01-28T22:07:48.139Z,7.77
2023-01-28T22:10:17.927Z,9.30
2023-01-28T22:12:47.329Z,10.17
2023-01-28T22:15:16.630Z,9.10
2023-01-28T22:17:45.886Z,11.03
2023-01-28T22:20:15.517Z,8.80
2023-01-28T22:22:46.215Z,12.43
2023-01-28T22:25:15.714Z,12.20
2023-01-28T22:27:44.933Z,9.93
2023-01-28T22:30:15.010Z,8.90
2023-01-28T22:32:44.408Z,11.43
2023-01-28T22:35:13.759Z,9.97
2023-01-28T22:37:42.918Z,11.97
2023-01-28T22:40:14.818Z,8.83
2023-01-28T22:42:44.710Z,10.10
2023-01-28T22:45:14.880Z,8.20
2023-01-28T22:47:45.470Z,10.20
2023-01-28T22:50:15.206Z,6.40
2023-01-28T22:52:44.631Z,7.83
2023-01-28T22:55:15.313Z,8.53
2023-01-28T22:57:44.594Z,6.67
2023-01-28T23:00:19.315Z,7.80
2023-01-28T23:02:48.637Z,7.57
2023-01-28T23:05:17.825Z,5.73
2023-01-28T23:07:47.105Z,7.90
2023-01-28T23:10:18.181Z,6.03
2023-01-28T23:12:47.921Z,7.93
2023-01-28T23:15:34.321Z,8.90
2023-01-28T23:18:21.540Z,5.87
2023-01-28T23:21:08.316Z,8.50
2023-01-28T23:23:55.402Z,6.13
2023-01-28T23:26:26.003Z,10.93
2023-01-28T23:28:55.532Z,9.77
2023-01-28T23:31:24.937Z,7.07
2023-01-28T23:33:54.148Z,7.37
2023-01-28T23:36:23.284Z,4.67
2023-01-28T23:38:52.741Z,5.63
2023-01-28T23:41:22.350Z,10.13
2023-01-28T23:43:53.095Z,8.50
2023-01-28T23:46:37.751Z,5.80
2023-01-28T23:49:08.989Z,9.43
2023-01-28T23:51:38.227Z,5.40
2023-01-28T23:54:08.006Z,8.43
2023-01-28T23:56:37.728Z,9.03
2023-01-28T23:59:08.532Z,8.57
